sensor_id;sensor_type;location;lat;lon;timestamp;pressure;altitude;pressure_sealevel;temperature;humidity
44531;BME280;30240;47.418;0.700;2023-04-06T00:00:29;100725.75073242188;;;10.12;60.83
44531;BME280;30240;47.418;0.700;2023-04-06T00:02:54;100724.8291015625;;;10.06;61.13
44531;BME280;30240;47.418;0.700;2023-04-06T00:05:19;100717.6025390625;;;10.1;61.58
44531;BME280;30240;47.418;0.700;2023-04-06T00:07:43;100717.6025390625;;;10.1;61.58
44531;BME280;30240;47.418;0.700;2023-04-06T00:10:09;100721.9970703125;;;9.98;61.47
44531;BME280;30240;47.418;0.700;2023-04-06T00:12:33;100723.47412109375;;;9.88;61.73
44531;BME280;30240;47.418;0.700;2023-04-06T00:14:58;100719.44580078125;;;9.87;62.05
44531;BME280;30240;47.418;0.700;2023-04-06T00:17:24;100712.27416992188;;;9.9;62.57
44531;BME280;30240;47.418;0.700;2023-04-06T00:19:49;100712.27416992188;;;9.9;62.57
44531;BME280;30240;47.418;0.700;2023-04-06T00:22:14;100711.07788085938;;;9.73;62.72
44531;BME280;30240;47.418;0.700;2023-04-06T00:24:38;100708.41674804688;;;9.7;62.87
44531;BME280;30240;47.418;0.700;2023-04-06T00:27:03;100704.26635742188;;;9.69;63.07
44531;BME280;30240;47.418;0.700;2023-04-06T00:29:28;100704.59594726562;;;9.6;63.41
44531;BME280;30240;47.418;0.700;2023-04-06T00:31:54;100701.2939453125;;;9.54;64.23
44531;BME280;30240;47.418;0.700;2023-04-06T00:34:19;100701.2939453125;;;9.54;64.23
44531;BME280;30240;47.418;0.700;2023-04-06T00:36:43;100698.76708984375;;;9.53;64.43
44531;BME280;30240;47.418;0.700;2023-04-06T00:39:09;100694.95239257812;;;9.51;64.95
44531;BME280;30240;47.418;0.700;2023-04-06T00:41:33;100695.86181640625;;;9.49;65.14
44531;BME280;30240;47.418;0.700;2023-04-06T00:43:59;100691.98608398438;;;9.43;65.83
44531;BME280;30240;47.418;0.700;2023-04-06T00:46:24;100691.98608398438;;;9.43;65.83
44531;BME280;30240;47.418;0.700;2023-04-06T00:48:49;100687.96997070312;;;9.19;66.08
44531;BME280;30240;47.418;0.700;2023-04-06T00:51:14;100684.92431640625;;;9.15;66.28
44531;BME280;30240;47.418;0.700;2023-04-06T00:53:39;100682.06176757812;;;9.18;66.11
44531;BME280;30240;47.418;0.700;2023-04-06T00:56:04;100682.6416015625;;;9.19;65.97
44531;BME280;30240;47.418;0.700;2023-04-06T00:58:28;100682.6416015625;;;9.19;65.97
44531;BME280;30240;47.418;0.700;2023-04-06T01:00:53;100678.759765625;;;9.14;66.14
44531;BME280;30240;47.418;0.700;2023-04-06T01:03:19;100678.93676757812;;;9.16;65.63
44531;BME280;30240;47.418;0.700;2023-04-06T01:05:44;100676.1962890625;;;9.16;65.76
44531;BME280;30240;47.418;0.700;2023-04-06T01:08:09;100675.54931640625;;;9.08;65.91
44531;BME280;30240;47.418;0.700;2023-04-06T01:10:34;100675.54931640625;;;9.08;65.91
44531;BME280;30240;47.418;0.700;2023-04-06T01:12:58;100676.01318359375;;;9.04;66.0
44531;BME280;30240;47.418;0.700;2023-04-06T01:15:24;100669.62280273438;;;9.12;65.93
44531;BME280;30240;47.418;0.700;2023-04-06T01:17:48;100668.32885742188;;;9.12;66.05
44531;BME280;30240;47.418;0.700;2023-04-06T01:20:14;100670.17822265625;;;9.07;66.52
44531;BME280;30240;47.418;0.700;2023-04-06T01:22:39;100670.17822265625;;;9.07;66.52
44531;BME280;30240;47.418;0.700;2023-04-06T01:25:04;100670.1171875;;;9.03;67.07
44531;BME280;30240;47.418;0.700;2023-04-06T01:27:28;100665.966796875;;;9.01;67.2
44531;BME280;30240;47.418;0.700;2023-04-06T01:29:53;100661.99340820312;;;8.88;67.52
44531;BME280;30240;47.418;0.700;2023-04-06T01:32:19;100657.79418945312;;;8.85;67.9
44531;BME280;30240;47.418;0.700;2023-04-06T01:34:43;100657.79418945312;;;8.85;67.9
44531;BME280;30240;47.418;0.700;2023-04-06T01:37:08;100653.7353515625;;;8.83;67.96
44531;BME280;30240;47.418;0.700;2023-04-06T01:39:33;100650.45166015625;;;8.8;68.49
44531;BME280;30240;47.418;0.700;2023-04-06T01:41:59;100657.89184570312;;;8.87;68.64
44531;BME280;30240;47.418;0.700;2023-04-06T01:44:23;100654.65698242188;;;8.79;68.91
44531;BME280;30240;47.418;0.700;2023-04-06T01:46:48;100654.65698242188;;;8.79;68.91
44531;BME280;30240;47.418;0.700;2023-04-06T01:49:13;100646.90551757812;;;8.8;69.13
44531;BME280;30240;47.418;0.700;2023-04-06T01:51:38;100645.11108398438;;;8.79;69.43
44531;BME280;30240;47.418;0.700;2023-04-06T01:54:04;100646.39282226562;;;8.84;69.76
44531;BME280;30240;47.418;0.700;2023-04-06T01:56:28;100646.03881835938;;;8.83;69.97
44531;BME280;30240;47.418;0.700;2023-04-06T01:58:53;100637.04833984375;;;8.74;70.16
44531;BME280;30240;47.418;0.700;2023-04-06T02:01:18;100637.04833984375;;;8.74;70.16
44531;BME280;30240;47.418;0.700;2023-04-06T02:03:44;100629.45556640625;;;8.8;70.7
44531;BME280;30240;47.418;0.700;2023-04-06T02:06:09;100626.904296875;;;8.83;70.58
44531;BME280;30240;47.418;0.700;2023-04-06T02:08:33;100623.18725585938;;;8.76;71.19
44531;BME280;30240;47.418;0.700;2023-04-06T02:10:58;100611.99951171875;;;8.53;71.92
44531;BME280;30240;47.418;0.700;2023-04-06T02:13:24;100611.99951171875;;;8.53;71.92
44531;BME280;30240;47.418;0.700;2023-04-06T02:15:48;100607.83081054688;;;8.72;71.92
44531;BME280;30240;47.418;0.700;2023-04-06T02:18:13;100602.87475585938;;;8.7;72.02
44531;BME280;30240;47.418;0.700;2023-04-06T02:20:38;100602.75268554688;;;8.69;72.38
44531;BME280;30240;47.418;0.700;2023-04-06T02:23:03;100597.10693359375;;;8.72;72.46
44531;BME280;30240;47.418;0.700;2023-04-06T02:25:28;100597.10693359375;;;8.72;72.46
44531;BME280;30240;47.418;0.700;2023-04-06T02:27:54;100595.166015625;;;8.72;72.44
44531;BME280;30240;47.418;0.700;2023-04-06T02:30:19;100595.20874023438;;;8.9;72.75
44531;BME280;30240;47.418;0.700;2023-04-06T02:32:43;100597.509765625;;;8.9;72.41
44531;BME280;30240;47.418;0.700;2023-04-06T02:35:08;100599.12719726562;;;8.81;72.87
44531;BME280;30240;47.418;0.700;2023-04-06T02:37:33;100599.12719726562;;;8.81;72.87
44531;BME280;30240;47.418;0.700;2023-04-06T02:39:58;100598.095703125;;;8.87;73.24
44531;BME280;30240;47.418;0.700;2023-04-06T02:42:23;100592.82836914062;;;8.8;73.25
44531;BME280;30240;47.418;0.700;2023-04-06T02:44:49;100599.560546875;;;8.79;73.42
44531;BME280;30240;47.418;0.700;2023-04-06T02:47:13;100604.2236328125;;;8.81;73.68
44531;BME280;30240;47.418;0.700;2023-04-06T02:49:38;100604.2236328125;;;8.81;73.68
44531;BME280;30240;47.418;0.700;2023-04-06T02:52:03;100592.138671875;;;8.76;73.81
44531;BME280;30240;47.418;0.700;2023-04-06T02:54:28;100590.00244140625;;;9.0;73.53
44531;BME280;30240;47.418;0.700;2023-04-06T02:56:53;100589.501953125;;;9.0;73.78
44531;BME280;30240;47.418;0.700;2023-04-06T02:59:18;100585.80322265625;;;8.87;74.01
44531;BME280;30240;47.418;0.700;2023-04-06T03:01:43;100585.80322265625;;;8.87;74.01
44531;BME280;30240;47.418;0.700;2023-04-06T03:04:08;100588.45825195312;;;8.81;74.18
44531;BME280;30240;47.418;0.700;2023-04-06T03:06:34;100594.62280273438;;;8.76;74.38
44531;BME280;30240;47.418;0.700;2023-04-06T03:08:58;100589.84375;;;8.79;74.47
44531;BME280;30240;47.418;0.700;2023-04-06T03:11:23;100594.04907226562;;;8.67;74.47
44531;BME280;30240;47.418;0.700;2023-04-06T03:13:48;100594.04907226562;;;8.67;74.47
44531;BME280;30240;47.418;0.700;2023-04-06T03:16:13;100591.56494140625;;;8.59;75.02
44531;BME280;30240;47.418;0.700;2023-04-06T03:18:38;100584.14306640625;;;8.62;75.13
44531;BME280;30240;47.418;0.700;2023-04-06T03:21:04;100592.26684570312;;;8.57;74.99
44531;BME280;30240;47.418;0.700;2023-04-06T03:23:28;100585.62622070312;;;8.46;75.1
44531;BME280;30240;47.418;0.700;2023-04-06T03:25:53;100585.62622070312;;;8.46;75.1
44531;BME280;30240;47.418;0.700;2023-04-06T03:28:18;100590.52124023438;;;8.53;75.28
44531;BME280;30240;47.418;0.700;2023-04-06T03:30:44;100601.123046875;;;8.49;75.04
44531;BME280;30240;47.418;0.700;2023-04-06T03:33:09;100596.533203125;;;8.5;75.19
44531;BME280;30240;47.418;0.700;2023-04-06T03:35:33;100596.74072265625;;;8.53;75.12
44531;BME280;30240;47.418;0.700;2023-04-06T03:37:58;100598.01635742188;;;8.66;75.03
44531;BME280;30240;47.418;0.700;2023-04-06T03:40:24;100598.01635742188;;;8.66;75.03
44531;BME280;30240;47.418;0.700;2023-04-06T03:42:49;100602.81372070312;;;8.45;75.36
44531;BME280;30240;47.418;0.700;2023-04-06T03:45:14;100603.7841796875;;;8.48;75.7
44531;BME280;30240;47.418;0.700;2023-04-06T03:47:38;100603.21655273438;;;8.63;75.33
44531;BME280;30240;47.418;0.700;2023-04-06T03:50:04;100599.98168945312;;;8.46;75.98
44531;BME280;30240;47.418;0.700;2023-04-06T03:52:29;100599.98168945312;;;8.46;75.98
44531;BME280;30240;47.418;0.700;2023-04-06T03:54:53;100598.7060546875;;;8.5;76.22
44531;BME280;30240;47.418;0.700;2023-04-06T03:57:18;100598.18725585938;;;8.59;76.33
44531;BME280;30240;47.418;0.700;2023-04-06T03:59:43;100605.92041015625;;;8.52;76.15
44531;BME280;30240;47.418;0.700;2023-04-06T04:02:08;100607.47680664062;;;8.63;76.17
44531;BME280;30240;47.418;0.700;2023-04-06T04:04:33;100607.47680664062;;;8.63;76.17
44531;BME280;30240;47.418;0.700;2023-04-06T04:06:59;100610.4736328125;;;8.49;76.5
44531;BME280;30240;47.418;0.700;2023-04-06T04:09:23;100615.12451171875;;;8.48;76.76
44531;BME280;30240;47.418;0.700;2023-04-06T04:11:49;100612.646484375;;;8.48;76.76
44531;BME280;30240;47.418;0.700;2023-04-06T04:14:13;100616.11938476562;;;8.38;77.02
44531;BME280;30240;47.418;0.700;2023-04-06T04:16:38;100616.11938476562;;;8.38;77.02
44531;BME280;30240;47.418;0.700;2023-04-06T04:19:03;100613.22631835938;;;8.44;77.08
44531;BME280;30240;47.418;0.700;2023-04-06T04:21:29;100611.73706054688;;;8.46;77.29
44531;BME280;30240;47.418;0.700;2023-04-06T04:23:53;100617.3095703125;;;8.5;77.43
44531;BME280;30240;47.418;0.700;2023-04-06T04:26:18;100617.48657226562;;;8.41;77.67
44531;BME280;30240;47.418;0.700;2023-04-06T04:28:44;100617.48657226562;;;8.41;77.67
44531;BME280;30240;47.418;0.700;2023-04-06T04:31:08;100622.28393554688;;;8.42;77.68
44531;BME280;30240;47.418;0.700;2023-04-06T04:33:33;100625.9765625;;;8.42;77.97
44531;BME280;30240;47.418;0.700;2023-04-06T04:35:58;100643.18237304688;;;8.28;78.39
44531;BME280;30240;47.418;0.700;2023-04-06T04:38:23;100643.93920898438;;;8.27;78.45
44531;BME280;30240;47.418;0.700;2023-04-06T04:40:48;100643.93920898438;;;8.27;78.45
44531;BME280;30240;47.418;0.700;2023-04-06T04:43:13;100632.861328125;;;8.24;78.54
44531;BME280;30240;47.418;0.700;2023-04-06T04:45:38;100632.275390625;;;8.27;78.83
44531;BME280;30240;47.418;0.700;2023-04-06T04:48:03;100637.744140625;;;8.35;78.53
44531;BME280;30240;47.418;0.700;2023-04-06T04:50:29;100641.09497070312;;;8.15;79.12
44531;BME280;30240;47.418;0.700;2023-04-06T04:52:53;100641.09497070312;;;8.15;79.12
44531;BME280;30240;47.418;0.700;2023-04-06T04:55:18;100636.70043945312;;;8.15;79.05
44531;BME280;30240;47.418;0.700;2023-04-06T04:57:43;100636.87744140625;;;8.32;78.85
44531;BME280;30240;47.418;0.700;2023-04-06T05:00:09;100642.87719726562;;;8.28;78.96
44531;BME280;30240;47.418;0.700;2023-04-06T05:02:33;100629.9072265625;;;8.32;79.09
44531;BME280;30240;47.418;0.700;2023-04-06T05:04:58;100631.56127929688;;;8.25;79.16
44531;BME280;30240;47.418;0.700;2023-04-06T05:07:23;100631.56127929688;;;8.25;79.16
44531;BME280;30240;47.418;0.700;2023-04-06T05:09:48;100633.935546875;;;8.2;79.3
44531;BME280;30240;47.418;0.700;2023-04-06T05:12:13;100637.9638671875;;;8.18;79.59
44531;BME280;30240;47.418;0.700;2023-04-06T05:14:39;100633.8134765625;;;8.13;79.77
44531;BME280;30240;47.418;0.700;2023-04-06T05:17:03;100637.43896484375;;;8.13;79.73
44531;BME280;30240;47.418;0.700;2023-04-06T05:19:29;100637.43896484375;;;8.13;79.73
44531;BME280;30240;47.418;0.700;2023-04-06T05:21:53;100636.57836914062;;;8.13;79.81
44531;BME280;30240;47.418;0.700;2023-04-06T05:24:18;100638.3056640625;;;8.08;79.95
44531;BME280;30240;47.418;0.700;2023-04-06T05:26:43;100645.78247070312;;;8.07;80.33
44531;BME280;30240;47.418;0.700;2023-04-06T05:29:09;100647.76611328125;;;8.07;80.36
44531;BME280;30240;47.418;0.700;2023-04-06T05:31:33;100647.76611328125;;;8.07;80.36
44531;BME280;30240;47.418;0.700;2023-04-06T05:33:58;100652.26440429688;;;8.1;80.0
44531;BME280;30240;47.418;0.700;2023-04-06T05:36:23;100658.84399414062;;;8.13;80.28
44531;BME280;30240;47.418;0.700;2023-04-06T05:38:48;100645.17211914062;;;8.11;80.47
44531;BME280;30240;47.418;0.700;2023-04-06T05:41:13;100646.66137695312;;;8.21;80.47
44531;BME280;30240;47.418;0.700;2023-04-06T05:43:38;100646.66137695312;;;8.21;80.47
44531;BME280;30240;47.418;0.700;2023-04-06T05:46:03;100647.46704101562;;;8.18;80.31
44531;BME280;30240;47.418;0.700;2023-04-06T05:48:28;100649.06005859375;;;8.22;80.41
44531;BME280;30240;47.418;0.700;2023-04-06T05:50:54;100645.34301757812;;;8.2;80.83
44531;BME280;30240;47.418;0.700;2023-04-06T05:53:18;100646.38061523438;;;8.11;80.88
44531;BME280;30240;47.418;0.700;2023-04-06T05:55:43;100646.38061523438;;;8.11;80.88
44531;BME280;30240;47.418;0.700;2023-04-06T05:58:09;100653.15551757812;;;8.25;80.55
44531;BME280;30240;47.418;0.700;2023-04-06T06:00:33;100654.38232421875;;;8.41;80.14
44531;BME280;30240;47.418;0.700;2023-04-06T06:02:58;100664.25170898438;;;8.39;80.34
44531;BME280;30240;47.418;0.700;2023-04-06T06:05:23;100672.79052734375;;;8.37;80.83
44531;BME280;30240;47.418;0.700;2023-04-06T06:07:48;100672.79052734375;;;8.37;80.83
44531;BME280;30240;47.418;0.700;2023-04-06T06:10:14;100679.4677734375;;;8.5;81.08
44531;BME280;30240;47.418;0.700;2023-04-06T06:12:38;100681.67724609375;;;8.35;81.86
44531;BME280;30240;47.418;0.700;2023-04-06T06:15:04;100685.48583984375;;;8.3;83.18
44531;BME280;30240;47.418;0.700;2023-04-06T06:17:28;100687.29858398438;;;8.07;83.81
44531;BME280;30240;47.418;0.700;2023-04-06T06:19:54;100687.29858398438;;;8.07;83.81
44531;BME280;30240;47.418;0.700;2023-04-06T06:22:18;100690.20385742188;;;8.13;84.53
44531;BME280;30240;47.418;0.700;2023-04-06T06:24:43;100694.1162109375;;;8.15;85.1
44531;BME280;30240;47.418;0.700;2023-04-06T06:27:08;100694.873046875;;;8.04;85.11
44531;BME280;30240;47.418;0.700;2023-04-06T06:29:34;100694.5556640625;;;8.07;85.68
44531;BME280;30240;47.418;0.700;2023-04-06T06:31:58;100694.5556640625;;;8.07;85.68
44531;BME280;30240;47.418;0.700;2023-04-06T06:34:23;100695.03784179688;;;8.13;85.63
44531;BME280;30240;47.418;0.700;2023-04-06T06:36:48;100690.966796875;;;8.11;85.76
44531;BME280;30240;47.418;0.700;2023-04-06T06:39:13;100684.18579101562;;;8.11;85.49
44531;BME280;30240;47.418;0.700;2023-04-06T06:41:38;100672.93090820312;;;8.07;85.72
44531;BME280;30240;47.418;0.700;2023-04-06T06:44:04;100683.0322265625;;;8.1;85.66
44531;BME280;30240;47.418;0.700;2023-04-06T06:46:28;100683.0322265625;;;8.1;85.66
44531;BME280;30240;47.418;0.700;2023-04-06T06:48:53;100666.85180664062;;;8.32;85.86
44531;BME280;30240;47.418;0.700;2023-04-06T06:51:18;100657.72705078125;;;8.21;85.62
44531;BME280;30240;47.418;0.700;2023-04-06T06:53:43;100652.54516601562;;;8.44;85.62
44531;BME280;30240;47.418;0.700;2023-04-06T06:56:08;100654.88891601562;;;8.56;85.26
44531;BME280;30240;47.418;0.700;2023-04-06T06:58:33;100654.88891601562;;;8.56;85.26
44531;BME280;30240;47.418;0.700;2023-04-06T07:00:59;100647.81494140625;;;8.55;84.97
44531;BME280;30240;47.418;0.700;2023-04-06T07:03:23;100652.62451171875;;;8.66;84.94
44531;BME280;30240;47.418;0.700;2023-04-06T07:05:49;100660.77270507812;;;8.76;85.07
44531;BME280;30240;47.418;0.700;2023-04-06T07:08:13;100659.53369140625;;;8.57;84.59
44531;BME280;30240;47.418;0.700;2023-04-06T07:10:38;100659.53369140625;;;8.57;84.59
44531;BME280;30240;47.418;0.700;2023-04-06T07:13:03;100663.64135742188;;;8.84;83.96
44531;BME280;30240;47.418;0.700;2023-04-06T07:15:28;100663.25073242188;;;8.94;84.18
44531;BME280;30240;47.418;0.700;2023-04-06T07:17:53;100661.95068359375;;;9.39;83.18
44531;BME280;30240;47.418;0.700;2023-04-06T07:20:18;100663.48266601562;;;9.0;82.45
44531;BME280;30240;47.418;0.700;2023-04-06T07:22:44;100663.48266601562;;;9.0;82.45
44531;BME280;30240;47.418;0.700;2023-04-06T07:25:09;100666.63208007812;;;9.32;82.82
44531;BME280;30240;47.418;0.700;2023-04-06T07:27:33;100656.4208984375;;;9.12;82.76
44531;BME280;30240;47.418;0.700;2023-04-06T07:29:59;100662.82958984375;;;8.98;82.78
44531;BME280;30240;47.418;0.700;2023-04-06T07:32:23;100662.16430664062;;;9.25;82.29
44531;BME280;30240;47.418;0.700;2023-04-06T07:34:49;100662.16430664062;;;9.25;82.29
44531;BME280;30240;47.418;0.700;2023-04-06T07:37:14;100660.60180664062;;;9.32;82.01
44531;BME280;30240;47.418;0.700;2023-04-06T07:39:38;100660.73608398438;;;9.58;81.5
44531;BME280;30240;47.418;0.700;2023-04-06T07:42:03;100657.17163085938;;;9.99;80.34
44531;BME280;30240;47.418;0.700;2023-04-06T07:44:28;100652.82592773438;;;9.78;80.32
44531;BME280;30240;47.418;0.700;2023-04-06T07:46:53;100652.82592773438;;;9.78;80.32
44531;BME280;30240;47.418;0.700;2023-04-06T07:49:19;100659.46655273438;;;9.99;80.56
44531;BME280;30240;47.418;0.700;2023-04-06T07:51:51;100652.89306640625;;;9.78;79.78
44531;BME280;30240;47.418;0.700;2023-04-06T07:54:09;100654.88891601562;;;9.56;79.56
44531;BME280;30240;47.418;0.700;2023-04-06T07:56:35;100655.6396484375;;;9.78;79.94
44531;BME280;30240;47.418;0.700;2023-04-06T07:59:03;100656.298828125;;;10.12;79.14
44531;BME280;30240;47.418;0.700;2023-04-06T08:01:23;100656.298828125;;;10.12;79.14
44531;BME280;30240;47.418;0.700;2023-04-06T08:03:48;100651.59912109375;;;10.08;80.11
44531;BME280;30240;47.418;0.700;2023-04-06T08:06:13;100651.37329101562;;;9.98;79.69
44531;BME280;30240;47.418;0.700;2023-04-06T08:08:38;100648.388671875;;;10.28;79.48
44531;BME280;30240;47.418;0.700;2023-04-06T08:11:03;100652.392578125;;;9.94;80.17
44531;BME280;30240;47.418;0.700;2023-04-06T08:13:28;100652.392578125;;;9.94;80.17
44531;BME280;30240;47.418;0.700;2023-04-06T08:15:53;100649.23706054688;;;10.65;78.66
44531;BME280;30240;47.418;0.700;2023-04-06T08:18:18;100650.84228515625;;;10.71;78.14
44531;BME280;30240;47.418;0.700;2023-04-06T08:20:43;100653.3935546875;;;10.2;79.05
44531;BME280;30240;47.418;0.700;2023-04-06T08:23:09;100659.56420898438;;;10.22;78.68
44531;BME280;30240;47.418;0.700;2023-04-06T08:25:35;100659.56420898438;;;10.22;78.68
44531;BME280;30240;47.418;0.700;2023-04-06T08:27:58;100660.7421875;;;10.28;79.44
44531;BME280;30240;47.418;0.700;2023-04-06T08:30:24;100659.92431640625;;;10.32;78.56
44531;BME280;30240;47.418;0.700;2023-04-06T08:32:48;100658.64868164062;;;10.15;79.15
44531;BME280;30240;47.418;0.700;2023-04-06T08:35:14;100651.220703125;;;10.4;78.67
44531;BME280;30240;47.418;0.700;2023-04-06T08:37:38;100651.220703125;;;10.4;78.67
44531;BME280;30240;47.418;0.700;2023-04-06T08:40:04;100645.30639648438;;;10.5;78.13
44531;BME280;30240;47.418;0.700;2023-04-06T08:42:32;100645.654296875;;;10.76;77.85
44531;BME280;30240;47.418;0.700;2023-04-06T08:44:54;100652.87475585938;;;10.68;77.63
44531;BME280;30240;47.418;0.700;2023-04-06T08:47:19;100662.57934570312;;;10.33;77.3
44531;BME280;30240;47.418;0.700;2023-04-06T08:49:45;100662.57934570312;;;10.33;77.3
44531;BME280;30240;47.418;0.700;2023-04-06T08:52:10;100669.11010742188;;;10.61;76.48
44531;BME280;30240;47.418;0.700;2023-04-06T08:54:34;100675.146484375;;;10.63;77.21
44531;BME280;30240;47.418;0.700;2023-04-06T08:56:59;100688.78173828125;;;11.1;76.48
44531;BME280;30240;47.418;0.700;2023-04-06T08:59:24;100682.2509765625;;;10.76;76.26
44531;BME280;30240;47.418;0.700;2023-04-06T09:01:49;100682.2509765625;;;10.76;76.26
44531;BME280;30240;47.418;0.700;2023-04-06T09:04:14;100674.609375;;;10.78;77.04
44531;BME280;30240;47.418;0.700;2023-04-06T09:06:39;100668.78662109375;;;11.19;75.53
44531;BME280;30240;47.418;0.700;2023-04-06T09:09:03;100668.017578125;;;11.34;75.26
44531;BME280;30240;47.418;0.700;2023-04-06T09:11:29;100672.28393554688;;;11.68;74.14
44531;BME280;30240;47.418;0.700;2023-04-06T09:13:55;100672.28393554688;;;11.68;74.14
44531;BME280;30240;47.418;0.700;2023-04-06T09:16:19;100680.09643554688;;;11.54;74.83
44531;BME280;30240;47.418;0.700;2023-04-06T09:18:44;100680.57861328125;;;11.31;75.39
44531;BME280;30240;47.418;0.700;2023-04-06T09:21:09;100697.06420898438;;;11.59;74.65
44531;BME280;30240;47.418;0.700;2023-04-06T09:23:34;100698.74877929688;;;11.9;73.83
44531;BME280;30240;47.418;0.700;2023-04-06T09:26:08;100698.74877929688;;;11.9;73.83
44531;BME280;30240;47.418;0.700;2023-04-06T09:28:24;100700.10986328125;;;11.47;73.35
44531;BME280;30240;47.418;0.700;2023-04-06T09:30:49;100703.39965820312;;;11.4;74.68
44531;BME280;30240;47.418;0.700;2023-04-06T09:33:22;100699.62768554688;;;11.26;73.59
44531;BME280;30240;47.418;0.700;2023-04-06T09:35:39;100691.42456054688;;;11.59;74.15
44531;BME280;30240;47.418;0.700;2023-04-06T09:38:11;100691.42456054688;;;11.59;74.15
44531;BME280;30240;47.418;0.700;2023-04-06T09:40:29;100691.455078125;;;11.68;73.47
44531;BME280;30240;47.418;0.700;2023-04-06T09:42:54;100703.00903320312;;;11.93;73.21
44531;BME280;30240;47.418;0.700;2023-04-06T09:45:19;100704.93774414062;;;11.87;74.24
44531;BME280;30240;47.418;0.700;2023-04-06T09:47:45;100707.72094726562;;;11.71;73.82
44531;BME280;30240;47.418;0.700;2023-04-06T09:50:11;100703.3447265625;;;12.23;73.6
44531;BME280;30240;47.418;0.700;2023-04-06T09:52:38;100703.3447265625;;;12.23;73.6
44531;BME280;30240;47.418;0.700;2023-04-06T09:55:01;100703.53393554688;;;12.1;72.81
44531;BME280;30240;47.418;0.700;2023-04-06T09:57:25;100702.0263671875;;;11.82;73.85
44531;BME280;30240;47.418;0.700;2023-04-06T09:59:53;100704.1015625;;;12.52;72.16
44531;BME280;30240;47.418;0.700;2023-04-06T09:59:58;100704.1015625;;;12.52;72.16
44531;BME280;30240;47.418;0.700;2023-04-06T10:02:18;100711.24877929688;;;12.42;70.41
44531;BME280;30240;47.418;0.700;2023-04-06T10:04:43;100711.24877929688;;;12.42;70.41
44531;BME280;30240;47.418;0.700;2023-04-06T10:07:05;100718.45092773438;;;12.35;69.76
44531;BME280;30240;47.418;0.700;2023-04-06T10:09:29;100715.2099609375;;;12.01;70.61
44531;BME280;30240;47.418;0.700;2023-04-06T10:11:54;100707.39135742188;;;11.81;71.23
44531;BME280;30240;47.418;0.700;2023-04-06T10:14:19;100700.830078125;;;11.86;71.17
44531;BME280;30240;47.418;0.700;2023-04-06T10:16:44;100700.830078125;;;11.86;71.17
44531;BME280;30240;47.418;0.700;2023-04-06T10:19:13;100693.80493164062;;;12.59;70.05
44531;BME280;30240;47.418;0.700;2023-04-06T10:21:35;100692.71850585938;;;12.51;69.48
44531;BME280;30240;47.418;0.700;2023-04-06T10:24:00;100689.73388671875;;;13.39;67.62
44531;BME280;30240;47.418;0.700;2023-04-06T10:26:24;100687.3046875;;;14.01;66.09
44531;BME280;30240;47.418;0.700;2023-04-06T10:28:49;100687.3046875;;;14.01;66.09
44531;BME280;30240;47.418;0.700;2023-04-06T10:31:14;100683.9111328125;;;14.46;65.75
44531;BME280;30240;47.418;0.700;2023-04-06T10:33:39;100689.20288085938;;;13.7;66.99
44531;BME280;30240;47.418;0.700;2023-04-06T10:36:11;100687.56103515625;;;14.17;65.91
44531;BME280;30240;47.418;0.700;2023-04-06T10:38:38;100687.17041015625;;;14.88;65.2
44531;BME280;30240;47.418;0.700;2023-04-06T10:41:03;100687.17041015625;;;14.88;65.2
44531;BME280;30240;47.418;0.700;2023-04-06T10:43:20;100676.09252929688;;;14.26;66.49
44531;BME280;30240;47.418;0.700;2023-04-06T10:45:44;100682.470703125;;;14.35;66.86
44531;BME280;30240;47.418;0.700;2023-04-06T10:48:17;100684.35668945312;;;14.08;66.89
44531;BME280;30240;47.418;0.700;2023-04-06T10:50:34;100692.24243164062;;;13.63;68.63
44531;BME280;30240;47.418;0.700;2023-04-06T10:53:00;100692.24243164062;;;13.63;68.63
44531;BME280;30240;47.418;0.700;2023-04-06T10:55:24;100689.75830078125;;;14.6;66.74
44531;BME280;30240;47.418;0.700;2023-04-06T10:57:49;100694.68994140625;;;13.28;68.88
44531;BME280;30240;47.418;0.700;2023-04-06T11:00:14;100697.35717773438;;;14.05;67.87
44531;BME280;30240;47.418;0.700;2023-04-06T11:02:38;100701.54418945312;;;13.31;70.24
44531;BME280;30240;47.418;0.700;2023-04-06T11:05:04;100701.54418945312;;;13.31;70.24
44531;BME280;30240;47.418;0.700;2023-04-06T11:07:29;100692.52319335938;;;13.43;70.38
44531;BME280;30240;47.418;0.700;2023-04-06T11:09:54;100685.77880859375;;;13.43;70.75
44531;BME280;30240;47.418;0.700;2023-04-06T11:12:21;100664.29443359375;;;13.5;70.48
44531;BME280;30240;47.418;0.700;2023-04-06T11:14:52;100671.66137695312;;;14.05;68.2
44531;BME280;30240;47.418;0.700;2023-04-06T11:17:09;100680.8837890625;;;13.67;69.03
44531;BME280;30240;47.418;0.700;2023-04-06T11:19:34;100680.8837890625;;;13.67;69.03
44531;BME280;30240;47.418;0.700;2023-04-06T11:22:06;100665.06958007812;;;14.09;68.42
44531;BME280;30240;47.418;0.700;2023-04-06T11:24:24;100671.59423828125;;;14.64;66.87